Time;durP1;ratioP1;P1;durP2;ratioP2;P2;SDS_P1;SDS_P2;PMS_P1;PMS_P2;Temp;Humidity;BMP_temperature;BMP_pressure;BME280_temperature;BME280_humidity;BME280_pressure;Samples;Min_cycle;Max_cycle;Signal;HPM_P1;HPM_P2
2023/12/04 00:01:32;;;;;;;12.17;9.07;;;-1.50;99.90;;;;;;5045621;28;20275;-58
2023/12/04 00:03:59;;;;;;;13.43;9.47;;;-1.70;99.90;;;;;;5046056;28;20616;-60
2023/12/04 00:06:27;;;;;;;14.73;9.90;;;-1.80;99.90;;;;;;5043846;28;20213;-60
2023/12/04 00:08:53;;;;;;;13.27;9.20;;;-1.80;99.90;;;;;;5042337;28;20742;-61
2023/12/04 00:11:20;;;;;;;13.37;8.93;;;-1.80;99.90;;;;;;5043434;28;20198;-60
2023/12/04 00:13:47;;;;;;;15.00;9.20;;;-1.60;99.90;;;;;;5045862;28;20214;-60
2023/12/04 00:16:13;;;;;;;14.07;9.50;;;-1.70;99.90;;;;;;5045152;28;20213;-60
2023/12/04 00:18:40;;;;;;;15.13;9.80;;;-1.80;99.90;;;;;;5042302;28;20237;-60
2023/12/04 00:21:07;;;;;;;12.40;8.90;;;-1.70;99.90;;;;;;5042395;28;20465;-60
2023/12/04 00:23:35;;;;;;;15.70;9.90;;;-1.70;99.90;;;;;;5045530;28;20229;-60
2023/12/04 00:26:02;;;;;;;14.90;9.37;;;-1.60;99.90;;;;;;5045656;28;20209;-60
2023/12/04 00:28:29;;;;;;;12.73;9.20;;;-1.60;99.90;;;;;;5042883;28;20227;-60
2023/12/04 00:30:56;;;;;;;13.63;9.33;;;-1.60;99.90;;;;;;5042401;28;20297;-61
2023/12/04 00:33:23;;;;;;;13.07;8.80;;;-1.60;99.90;;;;;;5043645;28;20206;-60
2023/12/04 00:35:49;;;;;;;14.07;9.03;;;-1.60;99.90;;;;;;5045532;28;20208;-60
2023/12/04 00:38:16;;;;;;;12.93;8.57;;;-1.70;99.90;;;;;;5044419;28;20263;-60
2023/12/04 00:40:44;;;;;;;12.97;8.40;;;-1.70;99.90;;;;;;5041931;28;20202;-60
2023/12/04 00:43:11;;;;;;;13.33;8.37;;;-1.70;99.90;;;;;;5041790;28;20738;-62
2023/12/04 00:45:38;;;;;;;12.13;8.63;;;-1.70;99.90;;;;;;5045244;28;20201;-60
2023/12/04 00:48:05;;;;;;;15.00;9.67;;;-1.80;99.90;;;;;;5045150;28;20316;-60
2023/12/04 00:50:31;;;;;;;16.07;9.70;;;-1.80;99.90;;;;;;5042341;28;20222;-62
2023/12/04 00:52:58;;;;;;;14.50;9.30;;;-1.80;99.90;;;;;;5041696;28;20579;-60
2023/12/04 00:55:25;;;;;;;13.93;9.80;;;-1.70;99.90;;;;;;5043470;28;20268;-60
2023/12/04 00:57:53;;;;;;;12.07;8.60;;;-1.70;99.90;;;;;;5045088;28;20214;-60
2023/12/04 01:00:19;;;;;;;15.27;9.83;;;-1.70;99.90;;;;;;5043853;28;20279;-60
2023/12/04 01:02:46;;;;;;;14.60;9.93;;;-1.70;99.90;;;;;;5041435;28;20751;-60
2023/12/04 01:05:13;;;;;;;13.83;9.17;;;-1.80;99.90;;;;;;5041697;28;20210;-61
2023/12/04 01:07:40;;;;;;;12.63;8.57;;;-1.80;99.90;;;;;;5044535;28;20202;-60
2023/12/04 01:10:07;;;;;;;14.20;8.63;;;-1.90;99.90;;;;;;5044065;28;20252;-60
2023/12/04 01:12:34;;;;;;;14.33;9.23;;;-1.80;99.90;;;;;;5041430;28;20206;-63
2023/12/04 01:15:03;;;;;;;14.47;9.13;;;-1.80;99.90;;;;;;5041324;28;20210;-60
2023/12/04 01:17:29;;;;;;;14.57;9.77;;;-1.90;99.90;;;;;;5043546;28;20635;-60
2023/12/04 01:19:57;;;;;;;14.13;8.93;;;-2.10;99.90;;;;;;5044490;28;20237;-60
2023/12/04 01:22:24;;;;;;;12.73;8.53;;;-2.10;99.90;;;;;;5042461;28;20236;-60
2023/12/04 01:24:50;;;;;;;15.83;9.07;;;-2.20;99.90;;;;;;5040978;28;20515;-60
2023/12/04 01:27:17;;;;;;;13.47;8.80;;;-2.20;99.90;;;;;;5041728;28;20214;-61
2023/12/04 01:29:44;;;;;;;17.37;10.00;;;-2.20;99.90;;;;;;5044123;28;20221;-61
2023/12/04 01:32:12;;;;;;;14.47;9.40;;;-2.30;99.90;;;;;;5044399;28;20209;-62
2023/12/04 01:34:38;;;;;;;13.27;8.80;;;-2.20;99.90;;;;;;5044604;28;20205;-62
2023/12/04 01:37:05;;;;;;;12.97;7.83;;;-2.20;99.90;;;;;;5044039;28;20209;-60
2023/12/04 01:39:32;;;;;;;15.30;9.33;;;-2.20;99.90;;;;;;5041566;28;20286;-60
2023/12/04 01:41:58;;;;;;;25.20;13.67;;;-2.30;99.90;;;;;;5040598;28;20284;-60
2023/12/04 01:44:25;;;;;;;13.13;8.47;;;-2.20;99.90;;;;;;5042215;28;20217;-60
2023/12/04 01:46:52;;;;;;;16.50;9.97;;;-2.00;99.90;;;;;;5043825;28;20263;-60
2023/12/04 01:49:20;;;;;;;12.37;7.93;;;-1.90;99.90;;;;;;5042880;28;20304;-62
2023/12/04 01:51:47;;;;;;;17.60;10.33;;;-1.80;99.90;;;;;;5040287;28;20282;-61
2023/12/04 01:54:15;;;;;;;14.40;8.97;;;-1.70;99.90;;;;;;5040476;28;20676;-61
2023/12/04 01:56:42;;;;;;;21.07;11.43;;;-1.60;99.90;;;;;;5043513;28;20209;-60
2023/12/04 01:59:08;;;;;;;12.07;7.97;;;-1.50;99.90;;;;;;5043629;28;20229;-60
2023/12/04 02:01:36;;;;;;;10.20;7.50;;;-1.40;99.90;;;;;;5040384;28;20218;-63
2023/12/04 02:04:04;;;;;;;11.93;7.87;;;-1.30;99.90;;;;;;5040151;28;20225;-62
2023/12/04 02:06:32;;;;;;;10.30;7.33;;;-1.20;99.90;;;;;;5042511;28;20210;-60
2023/12/04 02:08:58;;;;;;;14.87;8.93;;;-1.20;99.90;;;;;;5043407;28;20251;-60
2023/12/04 02:11:25;;;;;;;10.73;7.00;;;-1.10;99.90;;;;;;5041660;28;20197;-60
2023/12/04 02:13:52;;;;;;;9.40;6.97;;;-1.10;99.90;;;;;;5040009;28;20206;-61
2023/12/04 02:16:20;;;;;;;9.10;6.60;;;-1.00;99.90;;;;;;5040693;28;20301;-60
2023/12/04 02:18:47;;;;;;;9.20;6.73;;;-1.00;99.90;;;;;;5043247;28;20291;-60
2023/12/04 02:21:14;;;;;;;9.87;6.87;;;-1.00;99.90;;;;;;5042486;28;20259;-62
2023/12/04 02:23:42;;;;;;;17.87;9.90;;;-1.00;99.90;;;;;;5039998;28;20207;-60
2023/12/04 02:26:14;;;;;;;9.80;6.87;;;-0.90;99.90;;;;;;5039281;28;20209;-60
2023/12/04 02:28:43;;;;;;;8.57;5.83;;;-0.90;99.90;;;;;;5043401;28;20703;-60
2023/12/04 02:31:11;;;;;;;14.43;8.57;;;-0.90;99.90;;;;;;5043024;28;20492;-60
2023/12/04 02:33:40;;;;;;;13.60;7.40;;;-0.90;99.90;;;;;;5039836;28;20199;-60
2023/12/04 02:36:08;;;;;;;8.77;6.07;;;-0.80;99.90;;;;;;5039651;28;20203;-60
2023/12/04 02:38:35;;;;;;;9.30;6.37;;;-0.80;99.90;;;;;;5042304;28;20240;-60
2023/12/04 02:41:01;;;;;;;8.27;5.83;;;-0.80;99.90;;;;;;5042948;28;20209;-60
2023/12/04 02:43:29;;;;;;;8.03;5.57;;;-0.70;99.90;;;;;;5040687;28;20229;-60
2023/12/04 02:45:56;;;;;;;8.03;5.90;;;-0.90;99.90;;;;;;5039713;28;20287;-60
2023/12/04 02:48:23;;;;;;;7.50;5.30;;;-0.80;99.90;;;;;;5040489;28;20206;-59
2023/12/04 02:50:49;;;;;;;7.83;5.40;;;-0.80;99.90;;;;;;5042861;28;20202;-59
2023/12/04 02:53:16;;;;;;;7.40;5.00;;;-0.80;99.90;;;;;;5042458;28;20204;-62
2023/12/04 02:55:43;;;;;;;7.30;4.57;;;-0.70;99.90;;;;;;5039374;28;20399;-59
2023/12/04 02:58:09;;;;;;;8.73;5.87;;;-0.70;99.90;;;;;;5039072;28;20206;-59
2023/12/04 03:00:37;;;;;;;8.13;5.43;;;-0.70;99.90;;;;;;5042527;28;20259;-59
2023/12/04 03:03:04;;;;;;;7.67;5.27;;;-0.60;99.90;;;;;;5042745;28;20222;-59
2023/12/04 03:05:31;;;;;;;10.43;6.10;;;-0.60;99.90;;;;;;5040521;28;20209;-60
2023/12/04 03:07:58;;;;;;;9.97;5.93;;;-0.60;99.90;;;;;;5039096;28;20210;-59
2023/12/04 03:10:25;;;;;;;7.93;5.50;;;-0.60;99.90;;;;;;5040519;28;20300;-60
2023/12/04 03:12:51;;;;;;;7.40;5.63;;;-0.60;99.90;;;;;;5042571;28;20202;-59
2023/12/04 03:15:18;;;;;;;7.83;5.60;;;-0.70;99.90;;;;;;5042337;28;20331;-60
2023/12/04 03:17:46;;;;;;;8.13;5.70;;;-0.60;99.90;;;;;;5039165;28;20699;-60
2023/12/04 03:20:13;;;;;;;8.30;5.47;;;-0.60;99.90;;;;;;5039460;28;20234;-59
2023/12/04 03:22:40;;;;;;;7.80;5.63;;;-0.60;99.90;;;;;;5042481;28;20221;-59
2023/12/04 03:25:07;;;;;;;6.40;5.40;;;-0.60;99.90;;;;;;5042639;28;20679;-60
2023/12/04 03:27:34;;;;;;;7.43;5.27;;;-0.60;99.90;;;;;;5039900;28;20612;-59
2023/12/04 03:30:00;;;;;;;8.07;5.50;;;-0.60;99.90;;;;;;5039347;28;20237;-59
2023/12/04 03:32:27;;;;;;;8.80;5.37;;;-0.70;99.90;;;;;;5040756;28;20210;-59
2023/12/04 03:34:55;;;;;;;8.57;5.33;;;-0.80;99.90;;;;;;5046769;28;20212;-60
2023/12/04 03:37:22;;;;;;;15.40;8.23;;;-0.80;99.90;;;;;;5045538;28;20212;-59
2023/12/04 03:39:48;;;;;;;7.57;5.30;;;-0.80;99.90;;;;;;5043011;28;20656;-59
2023/12/04 03:42:15;;;;;;;6.17;4.47;;;-0.80;99.90;;;;;;5043248;28;20233;-60
2023/12/04 03:44:42;;;;;;;5.00;4.17;;;-0.80;99.90;;;;;;5046716;28;20198;-59
2023/12/04 03:47:09;;;;;;;5.30;4.10;;;-0.80;99.90;;;;;;5046322;28;20278;-59
2023/12/04 03:49:35;;;;;;;6.03;4.37;;;-0.90;99.90;;;;;;5043691;28;20225;-61
2023/12/04 03:52:04;;;;;;;5.53;3.90;;;-0.90;99.90;;;;;;5043114;28;20217;-59
2023/12/04 03:54:30;;;;;;;5.43;3.97;;;-0.80;99.90;;;;;;5044494;28;20211;-58
2023/12/04 03:56:57;;;;;;;4.77;3.60;;;-0.80;99.90;;;;;;5046080;28;20263;-59
2023/12/04 03:59:23;;;;;;;4.87;3.77;;;-0.80;99.90;;;;;;5044968;28;20225;-60
2023/12/04 04:01:50;;;;;;;5.20;4.00;;;-0.80;99.90;;;;;;5042581;28;20210;-59
2023/12/04 04:04:17;;;;;;;8.50;5.17;;;-0.90;99.90;;;;;;5042562;28;20210;-59
2023/12/04 04:06:44;;;;;;;5.53;4.20;;;-1.00;99.90;;;;;;5045783;28;20206;-59
2023/12/04 04:09:12;;;;;;;5.13;3.93;;;-0.90;99.90;;;;;;5045656;28;20225;-59
2023/12/04 04:11:38;;;;;;;6.57;4.27;;;-0.80;99.90;;;;;;5042817;28;20202;-59
2023/12/04 04:14:05;;;;;;;8.93;5.97;;;-0.70;99.90;;;;;;5042633;28;20229;-59
2023/12/04 04:16:32;;;;;;;7.93;5.90;;;-0.70;99.90;;;;;;5044295;28;20210;-59
2023/12/04 04:18:59;;;;;;;7.60;5.27;;;-0.60;99.90;;;;;;5076742;22;20745;-58
2023/12/04 04:21:24;;;;;;;7.40;4.90;;;-0.50;99.90;;;;;;5052568;28;20206;-57
2023/12/04 04:23:53;;;;;;;7.00;5.20;;;-0.40;99.90;;;;;;5042499;28;20668;-58
2023/12/04 04:26:21;;;;;;;7.57;5.40;;;-0.50;99.90;;;;;;5042981;28;20634;-59
2023/12/04 04:28:48;;;;;;;7.17;4.97;;;-0.50;99.90;;;;;;5045787;28;20210;-57
2023/12/04 04:31:14;;;;;;;6.70;4.87;;;-0.50;99.90;;;;;;5045510;28;20202;-57
2023/12/04 04:33:41;;;;;;;7.07;5.40;;;-0.60;99.90;;;;;;5042305;28;20722;-57
2023/12/04 04:36:11;;;;;;;8.30;5.20;;;-0.50;99.90;;;;;;5042129;28;20210;-57
2023/12/04 04:38:38;;;;;;;9.03;5.60;;;-0.40;99.90;;;;;;5044585;28;20209;-57
2023/12/04 04:41:05;;;;;;;6.73;4.77;;;-0.30;99.90;;;;;;5045392;28;20206;-57
2023/12/04 04:43:33;;;;;;;5.87;4.37;;;-0.30;99.90;;;;;;5043156;28;20614;-58
2023/12/04 04:46:00;;;;;;;6.53;4.30;;;-0.30;99.90;;;;;;5041015;28;20256;-58
2023/12/04 04:48:26;;;;;;;7.63;4.23;;;-0.30;99.90;;;;;;5042595;28;20676;-57
2023/12/04 04:50:53;;;;;;;6.27;4.30;;;-0.20;99.90;;;;;;5045702;28;20229;-57
2023/12/04 04:53:20;;;;;;;5.93;4.30;;;-0.20;99.90;;;;;;5044814;28;20204;-58
2023/12/04 04:55:47;;;;;;;5.47;4.03;;;-0.20;99.90;;;;;;5042009;28;20213;-57
2023/12/04 04:58:14;;;;;;;4.37;3.57;;;-0.10;99.90;;;;;;5041456;28;20684;-57
2023/12/04 05:00:42;;;;;;;4.77;3.80;;;-0.10;99.90;;;;;;5044695;28;20221;-56
2023/12/04 05:03:08;;;;;;;4.70;3.77;;;-0.30;99.90;;;;;;5044861;28;20308;-57
2023/12/04 05:05:35;;;;;;;4.83;3.80;;;-0.40;99.90;;;;;;5042822;28;20209;-57
2023/12/04 05:08:02;;;;;;;6.23;3.90;;;-0.40;99.90;;;;;;5041512;28;20210;-56
2023/12/04 05:10:29;;;;;;;5.37;4.00;;;-0.60;99.90;;;;;;5042771;28;20245;-57
2023/12/04 05:12:55;;;;;;;5.50;3.93;;;-0.60;99.90;;;;;;5044979;28;20208;-56
2023/12/04 05:15:22;;;;;;;5.60;4.00;;;-0.50;99.90;;;;;;5044087;28;20210;-57
2023/12/04 05:17:51;;;;;;;6.80;4.50;;;-0.50;99.90;;;;;;5041044;28;20233;-57
2023/12/04 05:20:16;;;;;;;5.77;3.90;;;-0.50;99.90;;;;;;5041208;28;20316;-57
2023/12/04 05:22:43;;;;;;;6.93;3.93;;;-0.50;99.90;;;;;;5044336;28;20316;-56
2023/12/04 05:25:10;;;;;;;6.53;4.40;;;-0.60;99.90;;;;;;5044811;28;20201;-57
2023/12/04 05:27:36;;;;;;;6.27;4.27;;;-0.50;99.90;;;;;;5041918;28;20205;-58
2023/12/04 05:30:04;;;;;;;7.97;4.47;;;-0.60;99.90;;;;;;5041044;28;20296;-56
2023/12/04 05:32:30;;;;;;;6.27;4.20;;;-0.70;99.90;;;;;;5042955;28;20209;-57
2023/12/04 05:34:58;;;;;;;5.70;4.10;;;-0.80;99.90;;;;;;5044678;28;20210;-56
2023/12/04 05:37:25;;;;;;;6.23;4.27;;;-0.80;99.90;;;;;;5043131;28;20699;-57
2023/12/04 05:39:52;;;;;;;6.60;4.97;;;-0.80;99.90;;;;;;5040725;28;20722;-58
2023/12/04 05:42:18;;;;;;;5.83;4.60;;;-0.90;99.90;;;;;;5040763;28;20636;-57
2023/12/04 05:44:45;;;;;;;5.50;4.13;;;-0.90;99.90;;;;;;5040657;28;20221;-57
2023/12/04 05:47:12;;;;;;;6.57;4.67;;;-1.00;99.90;;;;;;5041133;28;20210;-56
2023/12/04 05:49:38;;;;;;;5.50;4.23;;;-1.10;99.90;;;;;;5043285;28;20226;-57
2023/12/04 05:52:07;;;;;;;5.70;4.23;;;-1.20;99.90;;;;;;5043988;28;20206;-57
2023/12/04 05:54:33;;;;;;;4.97;4.00;;;-1.30;99.90;;;;;;5042184;28;20202;-57
2023/12/04 05:57:00;;;;;;;6.07;4.40;;;-1.40;99.90;;;;;;5040149;28;20632;-57
2023/12/04 05:59:27;;;;;;;5.70;4.60;;;-1.30;99.90;;;;;;5041185;28;20226;-58
2023/12/04 06:01:53;;;;;;;7.27;4.40;;;-1.40;99.90;;;;;;5043895;28;20679;-57
2023/12/04 06:04:20;;;;;;;6.67;4.53;;;-1.40;99.90;;;;;;5043898;28;20225;-56
2023/12/04 06:06:47;;;;;;;7.27;4.90;;;-1.50;99.90;;;;;;5048265;28;20206;-57
2023/12/04 06:09:16;;;;;;;6.37;4.10;;;-1.60;99.90;;;;;;5040282;28;20234;-57
2023/12/04 06:11:42;;;;;;;5.77;4.40;;;-1.60;99.90;;;;;;5043131;28;20206;-57
2023/12/04 06:14:10;;;;;;;6.43;5.00;;;-1.60;99.90;;;;;;5043732;28;20228;-59
2023/12/04 06:16:37;;;;;;;8.60;5.27;;;-1.60;99.90;;;;;;5040994;28;20228;-57
2023/12/04 06:19:04;;;;;;;8.60;5.73;;;-1.60;99.90;;;;;;5040124;28;20230;-57
2023/12/04 06:21:31;;;;;;;8.73;5.80;;;-1.70;99.90;;;;;;5041438;28;20210;-58
2023/12/04 06:23:58;;;;;;;7.17;5.17;;;-1.70;99.90;;;;;;5043209;28;20225;-58
2023/12/04 06:26:27;;;;;;;5.90;4.37;;;-1.70;99.90;;;;;;5042543;28;20675;-56
2023/12/04 06:28:54;;;;;;;6.90;4.87;;;-1.70;99.90;;;;;;5039805;28;20238;-59
2023/12/04 06:31:22;;;;;;;7.43;5.10;;;-1.70;99.90;;;;;;5039611;28;20206;-56
2023/12/04 06:33:49;;;;;;;6.97;5.27;;;-1.70;99.90;;;;;;5043368;28;20205;-56
2023/12/04 06:36:18;;;;;;;8.27;4.80;;;-1.70;99.90;;;;;;5043441;28;20212;-57
2023/12/04 06:38:50;;;;;;;6.90;5.13;;;-1.70;99.90;;;;;;5039530;28;20206;-57
2023/12/04 06:41:18;;;;;;;7.63;5.60;;;-1.50;99.90;;;;;;5040206;28;20217;-57
2023/12/04 06:43:47;;;;;;;6.93;4.80;;;-1.30;99.90;;;;;;5042882;28;20221;-56
2023/12/04 06:46:16;;;;;;;7.67;5.47;;;-1.20;99.90;;;;;;5044201;28;20245;-57
2023/12/04 06:48:44;;;;;;;7.13;5.30;;;-1.00;99.90;;;;;;5042181;28;20257;-57
2023/12/04 06:51:11;;;;;;;7.77;5.13;;;-0.90;99.90;;;;;;5042671;28;20228;-56
2023/12/04 06:53:37;;;;;;;9.07;5.67;;;-0.80;99.90;;;;;;5040601;28;20213;-57
2023/12/04 06:56:05;;;;;;;9.27;5.63;;;-0.70;99.90;;;;;;5039563;28;20290;-56
2023/12/04 06:58:32;;;;;;;7.43;5.10;;;-0.60;99.90;;;;;;5040638;28;20206;-59
2023/12/04 07:01:00;;;;;;;7.73;6.00;;;-0.50;99.90;;;;;;5042625;28;20642;-58
2023/12/04 07:03:27;;;;;;;7.30;5.60;;;-0.50;99.90;;;;;;5041924;28;20226;-55
2023/12/04 07:05:54;;;;;;;7.63;5.33;;;-0.50;99.90;;;;;;5039280;28;20237;-56
2023/12/04 07:08:20;;;;;;;8.67;5.70;;;-0.60;99.90;;;;;;5038481;28;20679;-58
2023/12/04 07:10:47;;;;;;;8.30;5.83;;;-0.60;99.90;;;;;;5042389;28;20639;-57
2023/12/04 07:13:14;;;;;;;7.33;5.47;;;-0.60;99.90;;;;;;5043042;28;20205;-58
2023/12/04 07:15:41;;;;;;;7.63;5.37;;;-0.70;99.90;;;;;;5040026;28;20210;-57
2023/12/04 07:18:09;;;;;;;7.67;5.63;;;-0.70;99.90;;;;;;5038952;28;20568;-56
2023/12/04 07:20:35;;;;;;;8.70;5.87;;;-0.80;99.90;;;;;;5040414;28;20283;-56
2023/12/04 07:23:03;;;;;;;8.47;5.30;;;-0.90;99.90;;;;;;5042584;28;20282;-56
2023/12/04 07:25:29;;;;;;;7.70;5.47;;;-1.00;99.90;;;;;;5041623;28;20214;-56
2023/12/04 07:27:57;;;;;;;8.40;5.80;;;-1.10;99.90;;;;;;5038995;28;20260;-57
2023/12/04 07:30:24;;;;;;;7.17;5.20;;;-1.10;99.90;;;;;;5039041;28;20786;-56
2023/12/04 07:32:51;;;;;;;7.30;5.13;;;-1.10;99.90;;;;;;5042548;28;20217;-57
2023/12/04 07:35:19;;;;;;;7.47;5.23;;;-1.20;99.90;;;;;;5042511;28;20206;-56
2023/12/04 07:37:46;;;;;;;5.83;4.57;;;-1.10;99.90;;;;;;5039455;28;20210;-61
2023/12/04 07:40:13;;;;;;;8.20;5.73;;;-1.10;99.90;;;;;;5039512;28;20226;-61
2023/12/04 07:42:40;;;;;;;8.73;6.17;;;-1.10;99.90;;;;;;5041072;28;20206;-60
2023/12/04 07:45:08;;;;;;;6.83;5.23;;;-1.00;99.90;;;;;;5042650;28;20228;-59
2023/12/04 07:47:36;;;;;;;8.03;5.30;;;-1.00;99.90;;;;;;5040464;28;20289;-57
2023/12/04 07:50:03;;;;;;;8.93;5.73;;;-0.80;99.90;;;;;;5038914;28;20260;-57
2023/12/04 07:52:31;;;;;;;7.07;4.97;;;-0.70;99.90;;;;;;5039593;28;20676;-56
2023/12/04 07:54:58;;;;;;;7.53;5.83;;;-0.50;99.90;;;;;;5042461;28;20557;-57
2023/12/04 07:57:25;;;;;;;7.20;5.60;;;-0.30;99.90;;;;;;5041935;28;20202;-57
2023/12/04 07:59:53;;;;;;;8.07;5.43;;;0.00;99.90;;;;;;5039190;28;20226;-57
2023/12/04 08:02:19;;;;;;;8.03;5.03;;;0.20;99.90;;;;;;5038907;28;20285;-57
2023/12/04 08:04:47;;;;;;;7.40;5.33;;;0.40;99.90;;;;;;5041842;28;20729;-58
2023/12/04 08:07:13;;;;;;;7.33;5.40;;;0.50;99.90;;;;;;5042346;28;20210;-58
2023/12/04 08:09:42;;;;;;;8.33;5.67;;;0.70;99.90;;;;;;5039831;28;20714;-57
2023/12/04 08:12:09;;;;;;;6.77;4.90;;;0.80;99.90;;;;;;5038959;28;20298;-57
2023/12/04 08:14:35;;;;;;;7.50;5.50;;;0.80;99.90;;;;;;5040349;28;20222;-57
2023/12/04 08:17:02;;;;;;;8.27;5.43;;;0.80;99.90;;;;;;5042061;28;20208;-56
2023/12/04 08:19:29;;;;;;;7.43;5.17;;;0.80;99.90;;;;;;5042670;28;20316;-66
2023/12/04 08:21:56;;;;;;;7.25;5.47;;;0.80;99.90;;;;;;5041152;28;20434;-61
2023/12/04 08:24:23;;;;;;;6.67;5.40;;;0.80;99.90;;;;;;5041201;28;20214;-62
2023/12/04 08:26:51;;;;;;;6.50;5.10;;;0.90;99.90;;;;;;5040954;28;20252;-61
2023/12/04 08:29:18;;;;;;;7.97;5.00;;;0.90;99.90;;;;;;5040895;28;20222;-60
2023/12/04 08:31:44;;;;;;;6.47;4.67;;;1.10;99.90;;;;;;5043390;28;20263;-61
2023/12/04 08:34:11;;;;;;;6.07;5.13;;;1.40;99.90;;;;;;5044723;28;20197;-61
2023/12/04 08:36:38;;;;;;;6.87;4.50;;;1.60;99.90;;;;;;5042385;28;20201;-61
2023/12/04 08:39:04;;;;;;;5.93;4.67;;;1.80;99.90;;;;;;5040889;28;20738;-63
2023/12/04 08:41:31;;;;;;;7.00;5.07;;;2.10;99.90;;;;;;5041587;28;20648;-64
2023/12/04 08:44:00;;;;;;;6.93;4.83;;;1.90;99.90;;;;;;5044127;28;20226;-68
2023/12/04 08:46:27;;;;;;;6.90;4.43;;;1.70;99.90;;;;;;5043774;28;20304;-59
2023/12/04 08:48:54;;;;;;;8.60;4.70;;;1.60;99.90;;;;;;5040395;28;20229;-59
2023/12/04 08:51:20;;;;;;;8.43;5.10;;;1.60;99.90;;;;;;5040683;28;20233;-60
2023/12/04 08:53:47;;;;;;;7.10;5.00;;;1.60;99.90;;;;;;5043586;28;20193;-59
2023/12/04 08:56:14;;;;;;;7.07;5.40;;;1.60;99.90;;;;;;5044059;28;20206;-59
2023/12/04 08:58:40;;;;;;;6.97;4.93;;;1.50;99.90;;;;;;5041556;28;20667;-64
2023/12/04 09:01:08;;;;;;;7.07;4.90;;;1.50;99.90;;;;;;5040560;28;20685;-61
2023/12/04 09:03:35;;;;;;;7.03;5.23;;;1.50;99.90;;;;;;5041636;28;20202;-61
2023/12/04 09:06:02;;;;;;;8.10;5.13;;;1.40;99.90;;;;;;5044180;28;20221;-62
2023/12/04 09:08:32;;;;;;;7.77;5.20;;;1.40;99.90;;;;;;5043668;28;20201;-61
2023/12/04 09:10:59;;;;;;;8.37;5.67;;;1.10;99.90;;;;;;5040570;28;20206;-61
2023/12/04 09:13:26;;;;;;;7.57;5.83;;;1.10;99.90;;;;;;5040553;28;20202;-64
2023/12/04 09:15:52;;;;;;;8.87;5.77;;;1.20;99.90;;;;;;5044425;28;20202;-63
2023/12/04 09:18:20;;;;;;;8.20;5.73;;;1.40;99.90;;;;;;5043409;28;20199;-60
2023/12/04 09:20:47;;;;;;;7.60;5.23;;;1.70;99.90;;;;;;5004037;28;1078878;-61
2023/12/04 09:23:14;;;;;;;8.43;6.07;;;1.90;99.90;;;;;;5041323;28;20234;-62
2023/12/04 09:25:41;;;;;;;7.90;6.10;;;2.00;99.90;;;;;;5042844;28;20217;-61
2023/12/04 09:28:08;;;;;;;6.97;5.20;;;1.90;99.90;;;;;;5044361;28;20201;-59
2023/12/04 09:30:37;;;;;;;7.23;5.67;;;1.70;99.90;;;;;;5042544;28;20336;-59
2023/12/04 09:33:06;;;;;;;8.10;5.67;;;1.90;99.90;;;;;;5040993;28;20214;-59
2023/12/04 09:35:34;;;;;;;7.83;5.40;;;2.00;99.90;;;;;;5041754;28;20203;-60
2023/12/04 09:38:00;;;;;;;7.97;4.83;;;2.20;99.90;;;;;;5044154;28;20247;-59
2023/12/04 09:40:27;;;;;;;8.73;5.90;;;2.40;99.90;;;;;;5043694;28;20229;-58
2023/12/04 09:42:54;;;;;;;9.53;5.70;;;2.70;99.90;;;;;;5040849;28;20596;-58
2023/12/04 09:45:21;;;;;;;9.30;5.83;;;2.90;99.90;;;;;;5040688;28;20284;-59
2023/12/04 09:47:49;;;;;;;7.87;6.23;;;3.00;99.90;;;;;;5043257;28;20257;-60
2023/12/04 09:50:20;;;;;;;8.30;5.77;;;2.90;99.90;;;;;;5043816;28;20233;-59
2023/12/04 09:52:49;;;;;;;7.27;5.83;;;3.00;99.90;;;;;;5040980;28;20210;-59
2023/12/04 09:55:16;;;;;;;7.57;5.50;;;3.00;99.90;;;;;;5040533;28;20690;-59
2023/12/04 09:57:45;;;;;;;10.47;5.90;;;3.00;99.90;;;;;;5042478;28;20202;-59
2023/12/04 10:00:13;;;;;;;8.17;5.83;;;3.10;99.90;;;;;;5044065;28;20221;-59
2023/12/04 10:02:41;;;;;;;10.27;6.13;;;3.20;99.90;;;;;;5041921;28;20197;-58
2023/12/04 10:05:09;;;;;;;10.37;6.13;;;3.40;99.90;;;;;;5040541;28;20310;-57
2023/12/04 10:07:36;;;;;;;8.10;5.87;;;3.50;99.90;;;;;;5041526;28;20214;-57
2023/12/04 10:10:05;;;;;;;7.93;6.03;;;3.50;99.90;;;;;;5043926;28;20426;-58
2023/12/04 10:12:33;;;;;;;8.53;5.73;;;3.40;99.90;;;;;;5043296;28;20206;-57
2023/12/04 10:15:07;;;;;;;9.47;6.27;;;3.30;99.90;;;;;;5040406;28;20198;-58
2023/12/04 10:17:37;;;;;;;9.20;6.10;;;3.40;99.90;;;;;;5040354;28;20698;-58
2023/12/04 10:20:17;;;;;;;10.67;6.77;;;3.40;99.90;;;;;;5061674;22;20267;-52
2023/12/04 10:22:54;;;;;;;7.90;5.73;;;3.40;99.90;;;;;;5043384;28;20309;-51
2023/12/04 10:25:24;;;;;;;10.10;6.07;;;3.20;99.90;;;;;;5042979;28;20714;-50
2023/12/04 10:27:51;;;;;;;10.17;6.07;;;3.30;99.90;;;;;;5039935;28;20202;-50
2023/12/04 10:30:26;;;;;;;10.33;6.47;;;3.30;99.90;;;;;;5039321;28;20222;-53
2023/12/04 10:33:00;;;;;;;9.93;6.43;;;3.30;99.90;;;;;;5043055;28;20655;-51
2023/12/04 10:35:27;;;;;;;14.13;6.53;;;3.30;99.90;;;;;;5043041;28;20263;-51
2023/12/04 10:37:55;;;;;;;10.83;6.13;;;3.50;99.90;;;;;;5042915;28;20252;-52
2023/12/04 10:40:27;;;;;;;9.27;6.37;;;3.70;99.90;;;;;;5042779;28;20226;-52
2023/12/04 10:43:16;;;;;;;13.40;6.97;;;3.80;99.90;;;;;;5041679;28;20209;-53
2023/12/04 10:45:43;;;;;;;9.33;6.90;;;3.90;99.90;;;;;;5040693;28;20220;-51
2023/12/04 10:48:11;;;;;;;8.60;6.27;;;4.00;99.90;;;;;;5039270;28;20206;-51
2023/12/04 10:50:39;;;;;;;9.93;6.70;;;4.10;99.90;;;;;;5040496;28;20222;-54
2023/12/04 10:53:06;;;;;;;10.27;7.30;;;4.10;99.90;;;;;;5042668;28;20425;-51
2023/12/04 10:55:34;;;;;;;7.97;6.13;;;4.00;99.90;;;;;;5042185;28;20682;-50
2023/12/04 10:58:05;;;;;;;12.07;6.60;;;4.10;99.90;;;;;;5039195;28;20207;-52
2023/12/04 11:00:34;;;;;;;19.80;10.50;;;4.00;99.90;;;;;;5039322;28;20226;-52
2023/12/04 11:03:07;;;;;;;14.10;7.80;;;4.10;99.90;;;;;;5042563;28;20323;-51
2023/12/04 11:05:38;;;;;;;9.00;6.27;;;4.10;99.90;;;;;;5041454;28;20213;-52
2023/12/04 11:08:06;;;;;;;10.83;7.60;;;4.30;99.90;;;;;;5039083;28;20264;-50
2023/12/04 11:10:39;;;;;;;9.03;6.40;;;4.30;99.90;;;;;;5039711;28;20253;-50
2023/12/04 11:13:11;;;;;;;9.33;6.10;;;4.30;99.90;;;;;;5042628;28;20201;-51
2023/12/04 11:15:41;;;;;;;11.90;6.40;;;4.20;99.90;;;;;;5041248;28;20585;-51
2023/12/04 11:18:10;;;;;;;9.30;6.90;;;4.10;99.90;;;;;;5039528;28;20603;-51
2023/12/04 11:20:45;;;;;;;9.10;6.40;;;4.10;99.90;;;;;;5039476;28;20711;-51
2023/12/04 11:23:14;;;;;;;8.90;6.63;;;4.00;99.90;;;;;;5042226;28;20239;-51
2023/12/04 11:25:42;;;;;;;9.40;6.80;;;3.90;99.90;;;;;;5040628;28;20225;-51
2023/12/04 11:28:10;;;;;;;12.13;6.93;;;3.90;99.90;;;;;;5038681;28;20198;-52
2023/12/04 11:30:37;;;;;;;7.63;6.27;;;3.70;99.90;;;;;;5039530;28;20363;-54
2023/12/04 11:33:06;;;;;;;8.50;6.53;;;3.70;99.90;;;;;;5042401;28;20662;-51
2023/12/04 11:35:34;;;;;;;8.17;6.33;;;3.80;99.90;;;;;;5042145;28;20194;-52
2023/12/04 11:38:01;;;;;;;7.90;5.90;;;3.90;99.90;;;;;;5038782;28;20206;-52
2023/12/04 11:40:28;;;;;;;9.93;7.00;;;4.10;99.90;;;;;;5038639;28;20226;-51
2023/12/04 11:42:57;;;;;;;8.97;6.70;;;4.30;99.90;;;;;;5042097;28;20304;-51
2023/12/04 11:45:23;;;;;;;10.33;7.03;;;4.30;99.90;;;;;;5042073;28;20268;-51
2023/12/04 11:47:51;;;;;;;10.43;6.97;;;4.00;99.90;;;;;;5039210;28;20214;-51
2023/12/04 11:50:19;;;;;;;11.27;6.90;;;3.80;99.90;;;;;;5038786;28;20230;-52
2023/12/04 11:52:47;;;;;;;10.23;7.70;;;3.50;99.90;;;;;;5040659;28;20234;-51
2023/12/04 11:55:17;;;;;;;11.67;7.33;;;3.40;99.90;;;;;;5045177;28;20280;-51
2023/12/04 11:57:45;;;;;;;10.97;7.20;;;3.10;99.90;;;;;;5044023;28;20210;-51
2023/12/04 12:00:21;;;;;;;9.97;7.53;;;2.90;99.90;;;;;;5042596;28;20226;-50
2023/12/04 12:03:02;;;;;;;12.57;7.13;;;2.70;99.90;;;;;;5044861;28;20214;-51
2023/12/04 12:05:27;;;;;;;11.00;7.70;;;2.70;99.90;;;;;;5046300;28;20213;-50
2023/12/04 12:07:55;;;;;;;10.43;7.53;;;2.90;99.90;;;;;;5045738;28;20618;-50
2023/12/04 12:10:22;;;;;;;10.57;7.70;;;2.90;99.90;;;;;;5045512;28;20305;-51
2023/12/04 12:12:49;;;;;;;9.67;6.90;;;2.90;99.90;;;;;;5043276;28;20690;-51
2023/12/04 12:15:17;;;;;;;9.70;6.77;;;3.00;99.90;;;;;;5042811;28;20332;-52
2023/12/04 12:17:44;;;;;;;7.83;6.40;;;2.90;99.90;;;;;;5043856;28;20232;-51
2023/12/04 12:20:13;;;;;;;10.03;7.60;;;2.80;99.90;;;;;;5045098;28;20233;-52
2023/12/04 12:22:41;;;;;;;13.13;7.60;;;2.70;99.90;;;;;;5043989;28;20672;-52
2023/12/04 12:25:09;;;;;;;10.30;7.87;;;2.70;99.90;;;;;;5042120;28;20222;-51
2023/12/04 12:27:36;;;;;;;12.00;7.77;;;2.60;99.90;;;;;;5042109;28;20202;-52
2023/12/04 12:30:04;;;;;;;10.13;7.60;;;2.50;99.90;;;;;;5045242;28;20267;-51
2023/12/04 12:32:33;;;;;;;10.47;7.80;;;2.40;99.90;;;;;;5045288;28;20287;-51
2023/12/04 12:34:59;;;;;;;12.87;8.63;;;2.30;99.90;;;;;;5045689;28;20229;-51
2023/12/04 12:37:27;;;;;;;13.10;7.73;;;2.40;99.90;;;;;;5044965;28;20198;-51
2023/12/04 12:39:53;;;;;;;13.47;8.23;;;2.40;99.90;;;;;;5042228;28;20222;-50
2023/12/04 12:42:25;;;;;;;13.20;8.73;;;2.40;99.90;;;;;;5041806;28;20206;-51
2023/12/04 12:44:53;;;;;;;12.00;8.13;;;2.50;99.90;;;;;;5044352;28;20222;-53
2023/12/04 12:47:20;;;;;;;12.03;8.47;;;2.60;99.90;;;;;;5045138;28;20205;-52
2023/12/04 12:49:48;;;;;;;11.97;8.30;;;2.70;99.90;;;;;;5042815;28;20237;-52